map of IDR home
IDR - Airport
Location
City:  Indore, Madhya Pradesh, India
Name:Devi Ahilyabai Holkar International Airport
ICAO:VAID
IATA:IDR

Details
Type:Airport (Aerodrome, Airfield)
Use:Public/Civil, International (customs port of entry)
Latitude:2243'18"N (22.721786)
Longitude:7548'04"E (75.801086)
Datum:WGS 1984
Elevation:1850 ft (564 m)
Variation:0.35E (WMM2015 magnetic declination)
0.06 annual change
Runways:1
Longest:7480 × 148 ft (2280 × 45 m)

Time
Time Zone:UTC+5:30
Local Time:

Weather
METAR:VAID 170900Z 05002KT 5000 HZ FEW020 21/05 Q1017 NOSIG

Related Locations
Nearby:
Farthest:IPC: 11991 mi / 19297 km
Easter Island (Isla de Pascua, Rapa Nui) [Mataveri Intl], VS, CL

Find:

   beyond  
but within

Other Information
Maps:
NOTAMs:
Links:
Sources:

  
  • flag of India
  

Sectional Chart

Flight Planning
at skyvector.com

Satellite Image

Google Maps Satellite view

 

Copyright © 2004-2018 Karl L. Swartz. All rights reserved.
The Great Circle Mapper name and logo are trademarks of the Great Circle Mapper.
All other trademarks mentioned herein belong to their respective owners.
Please see credits for attibutions and further copyright information.

  Follow gcmap on Facebook Follow gcmap on Twitter Follow gcmap on Google+ GCmap on LinkedIn

hCard Microformat

Geo Microformat